sensor_id;sensor_type;location;lat;lon;timestamp;pressure;altitude;pressure_sealevel;temperature;humidity
25658;BME280;13517;59.320;18.042;2022-11-14T00:00:31;102463.22;;;4.62;100.00
25658;BME280;13517;59.320;18.042;2022-11-14T00:03:02;102448.91;;;4.61;100.00
25658;BME280;13517;59.320;18.042;2022-11-14T00:05:28;102490.53;;;4.89;100.00
25658;BME280;13517;59.320;18.042;2022-11-14T00:07:53;102489.66;;;4.90;100.00
25658;BME280;13517;59.320;18.042;2022-11-14T00:10:19;102481.50;;;4.98;100.00
25658;BME280;13517;59.320;18.042;2022-11-14T00:12:44;102477.88;;;5.02;100.00
25658;BME280;13517;59.320;18.042;2022-11-14T00:15:10;102475.19;;;5.03;100.00
25658;BME280;13517;59.320;18.042;2022-11-14T00:17:36;102466.19;;;5.08;100.00
25658;BME280;13517;59.320;18.042;2022-11-14T00:20:03;102444.06;;;4.93;100.00
25658;BME280;13517;59.320;18.042;2022-11-14T00:22:29;102464.34;;;5.13;100.00
25658;BME280;13517;59.320;18.042;2022-11-14T00:24:55;102428.00;;;4.93;100.00
25658;BME280;13517;59.320;18.042;2022-11-14T00:27:20;102412.78;;;4.95;100.00
25658;BME280;13517;59.320;18.042;2022-11-14T00:29:45;102442.81;;;5.19;100.00
25658;BME280;13517;59.320;18.042;2022-11-14T00:32:11;102450.72;;;5.27;100.00
25658;BME280;13517;59.320;18.042;2022-11-14T00:34:36;102440.00;;;5.28;100.00
25658;BME280;13517;59.320;18.042;2022-11-14T00:37:01;102423.97;;;5.25;100.00
25658;BME280;13517;59.320;18.042;2022-11-14T00:39:27;102408.78;;;5.24;100.00
25658;BME280;13517;59.320;18.042;2022-11-14T00:41:52;102398.97;;;5.25;100.00
25658;BME280;13517;59.320;18.042;2022-11-14T00:44:18;102387.34;;;5.24;100.00
25658;BME280;13517;59.320;18.042;2022-11-14T00:46:43;102411.19;;;5.43;100.00
25658;BME280;13517;59.320;18.042;2022-11-14T00:49:09;102415.53;;;5.52;100.00
25658;BME280;13517;59.320;18.042;2022-11-14T00:51:35;102367.56;;;5.35;100.00
25658;BME280;13517;59.320;18.042;2022-11-14T00:54:00;102410.91;;;5.62;100.00
25658;BME280;13517;59.320;18.042;2022-11-14T00:56:27;102375.50;;;5.39;100.00
25658;BME280;13517;59.320;18.042;2022-11-14T00:58:52;102401.97;;;5.59;100.00
25658;BME280;13517;59.320;18.042;2022-11-14T01:01:18;102396.59;;;5.61;100.00
25658;BME280;13517;59.320;18.042;2022-11-14T01:03:47;102413.38;;;5.74;100.00
25658;BME280;13517;59.320;18.042;2022-11-14T01:06:12;102396.50;;;5.66;100.00
25658;BME280;13517;59.320;18.042;2022-11-14T01:08:39;102407.19;;;5.69;100.00
25658;BME280;13517;59.320;18.042;2022-11-14T01:11:10;102415.94;;;5.80;100.00
25658;BME280;13517;59.320;18.042;2022-11-14T01:13:36;102393.81;;;5.67;100.00
25658;BME280;13517;59.320;18.042;2022-11-14T01:16:02;102388.38;;;5.72;100.00
25658;BME280;13517;59.320;18.042;2022-11-14T01:18:27;102399.00;;;5.78;100.00
25658;BME280;13517;59.320;18.042;2022-11-14T01:20:53;102402.41;;;5.86;100.00
25658;BME280;13517;59.320;18.042;2022-11-14T01:23:18;102400.63;;;5.89;100.00
25658;BME280;13517;59.320;18.042;2022-11-14T01:25:44;102367.03;;;5.66;100.00
25658;BME280;13517;59.320;18.042;2022-11-14T01:28:15;102390.97;;;5.77;100.00
25658;BME280;13517;59.320;18.042;2022-11-14T01:30:41;102404.16;;;5.89;100.00
25658;BME280;13517;59.320;18.042;2022-11-14T01:33:07;102370.38;;;5.79;100.00
25658;BME280;13517;59.320;18.042;2022-11-14T01:35:34;102382.69;;;5.89;100.00
25658;BME280;13517;59.320;18.042;2022-11-14T01:38:00;102364.00;;;5.86;100.00
25658;BME280;13517;59.320;18.042;2022-11-14T01:40:26;102380.81;;;5.94;100.00
25658;BME280;13517;59.320;18.042;2022-11-14T01:45:55;102379.00;;;5.95;100.00
25658;BME280;13517;59.320;18.042;2022-11-14T01:53:48;102340.59;;;5.93;100.00
25658;BME280;13517;59.320;18.042;2022-11-14T01:56:17;102354.75;;;6.01;100.00
25658;BME280;13517;59.320;18.042;2022-11-14T01:58:47;102346.69;;;6.01;100.00
25658;BME280;13517;59.320;18.042;2022-11-14T02:01:13;102355.66;;;6.03;100.00
25658;BME280;13517;59.320;18.042;2022-11-14T02:03:40;102342.19;;;6.05;100.00
25658;BME280;13517;59.320;18.042;2022-11-14T02:06:09;102323.56;;;5.97;100.00
25658;BME280;13517;59.320;18.042;2022-11-14T02:08:37;102338.56;;;6.09;100.00
25658;BME280;13517;59.320;18.042;2022-11-14T02:11:04;102305.72;;;5.93;100.00
25658;BME280;13517;59.320;18.042;2022-11-14T02:13:29;102298.53;;;5.95;100.00
25658;BME280;13517;59.320;18.042;2022-11-14T02:15:55;102298.53;;;5.95;100.00
25658;BME280;13517;59.320;18.042;2022-11-14T02:18:20;102310.00;;;6.05;100.00
25658;BME280;13517;59.320;18.042;2022-11-14T02:20:46;102324.22;;;6.10;100.00
25658;BME280;13517;59.320;18.042;2022-11-14T02:23:12;102305.44;;;6.08;100.00
25658;BME280;13517;59.320;18.042;2022-11-14T02:25:38;102313.28;;;6.19;100.00
25658;BME280;13517;59.320;18.042;2022-11-14T02:28:05;102304.38;;;6.19;100.00
25658;BME280;13517;59.320;18.042;2022-11-14T02:30:31;102303.44;;;6.20;100.00
25658;BME280;13517;59.320;18.042;2022-11-14T02:32:57;102301.59;;;6.22;100.00
25658;BME280;13517;59.320;18.042;2022-11-14T02:35:22;102285.69;;;6.14;100.00
25658;BME280;13517;59.320;18.042;2022-11-14T02:37:48;102266.13;;;6.07;100.00
25658;BME280;13517;59.320;18.042;2022-11-14T02:40:13;102289.06;;;6.24;100.00
25658;BME280;13517;59.320;18.042;2022-11-14T02:42:39;102271.38;;;6.13;100.00
25658;BME280;13517;59.320;18.042;2022-11-14T02:45:04;102266.09;;;6.10;100.00
25658;BME280;13517;59.320;18.042;2022-11-14T02:47:30;102251.88;;;6.05;100.00
25658;BME280;13517;59.320;18.042;2022-11-14T02:49:55;102279.97;;;6.30;100.00
25658;BME280;13517;59.320;18.042;2022-11-14T02:52:21;102228.75;;;5.98;100.00
25658;BME280;13517;59.320;18.042;2022-11-14T02:54:46;102267.53;;;6.25;100.00
25658;BME280;13517;59.320;18.042;2022-11-14T02:57:11;102278.03;;;6.36;100.00
25658;BME280;13517;59.320;18.042;2022-11-14T02:59:37;102277.97;;;6.39;100.00
25658;BME280;13517;59.320;18.042;2022-11-14T03:02:02;102248.59;;;6.32;100.00
25658;BME280;13517;59.320;18.042;2022-11-14T03:04:28;102266.31;;;6.40;100.00
25658;BME280;13517;59.320;18.042;2022-11-14T03:06:53;102229.19;;;6.20;100.00
25658;BME280;13517;59.320;18.042;2022-11-14T03:09:18;102270.63;;;6.48;100.00
25658;BME280;13517;59.320;18.042;2022-11-14T03:11:44;102252.81;;;6.44;100.00
25658;BME280;13517;59.320;18.042;2022-11-14T03:14:09;102248.31;;;6.46;100.00
25658;BME280;13517;59.320;18.042;2022-11-14T03:16:35;102250.00;;;6.48;100.00
25658;BME280;13517;59.320;18.042;2022-11-14T03:19:00;102216.50;;;6.29;100.00
25658;BME280;13517;59.320;18.042;2022-11-14T03:21:26;102211.94;;;6.32;100.00
25658;BME280;13517;59.320;18.042;2022-11-14T03:23:52;102228.72;;;6.42;100.00
25658;BME280;13517;59.320;18.042;2022-11-14T03:26:17;102240.97;;;6.54;100.00
25658;BME280;13517;59.320;18.042;2022-11-14T03:28:43;102250.63;;;6.61;100.00
25658;BME280;13517;59.320;18.042;2022-11-14T03:31:10;102240.72;;;6.63;100.00
25658;BME280;13517;59.320;18.042;2022-11-14T03:33:36;102229.28;;;6.57;100.00
25658;BME280;13517;59.320;18.042;2022-11-14T03:36:03;102215.91;;;6.53;100.00
25658;BME280;13517;59.320;18.042;2022-11-14T03:38:29;102231.75;;;6.64;100.00
25658;BME280;13517;59.320;18.042;2022-11-14T03:40:57;102252.03;;;6.78;100.00
25658;BME280;13517;59.320;18.042;2022-11-14T03:43:22;102243.13;;;6.76;100.00
25658;BME280;13517;59.320;18.042;2022-11-14T03:45:48;102236.16;;;6.68;100.00
25658;BME280;13517;59.320;18.042;2022-11-14T03:48:13;102227.19;;;6.68;100.00
25658;BME280;13517;59.320;18.042;2022-11-14T03:50:39;102245.59;;;6.85;100.00
25658;BME280;13517;59.320;18.042;2022-11-14T03:53:05;102246.41;;;6.87;100.00
25658;BME280;13517;59.320;18.042;2022-11-14T03:55:31;102231.47;;;6.77;100.00
25658;BME280;13517;59.320;18.042;2022-11-14T03:57:56;102227.78;;;6.81;100.00
25658;BME280;13517;59.320;18.042;2022-11-14T04:00:21;102241.00;;;6.90;100.00
25658;BME280;13517;59.320;18.042;2022-11-14T04:02:47;102217.06;;;6.79;100.00
25658;BME280;13517;59.320;18.042;2022-11-14T04:05:13;102222.34;;;6.82;100.00
25658;BME280;13517;59.320;18.042;2022-11-14T04:07:38;102238.19;;;6.95;100.00
25658;BME280;13517;59.320;18.042;2022-11-14T04:10:04;102238.16;;;6.97;100.00
25658;BME280;13517;59.320;18.042;2022-11-14T04:12:30;102243.50;;;6.98;100.00
25658;BME280;13517;59.320;18.042;2022-11-14T04:14:55;102216.03;;;6.85;100.00
25658;BME280;13517;59.320;18.042;2022-11-14T04:17:21;102208.09;;;6.80;100.00
25658;BME280;13517;59.320;18.042;2022-11-14T04:19:46;102229.22;;;6.94;100.00
25658;BME280;13517;59.320;18.042;2022-11-14T04:22:12;102209.72;;;6.86;100.00
25658;BME280;13517;59.320;18.042;2022-11-14T04:24:37;102192.94;;;6.78;100.00
25658;BME280;13517;59.320;18.042;2022-11-14T04:27:02;102198.25;;;6.81;100.00
25658;BME280;13517;59.320;18.042;2022-11-14T04:29:28;102237.94;;;7.04;100.00
25658;BME280;13517;59.320;18.042;2022-11-14T04:31:53;102217.59;;;6.95;100.00
25658;BME280;13517;59.320;18.042;2022-11-14T04:34:18;102222.88;;;6.99;100.00
25658;BME280;13517;59.320;18.042;2022-11-14T04:36:44;102209.59;;;6.92;100.00
25658;BME280;13517;59.320;18.042;2022-11-14T04:39:09;102233.38;;;7.08;100.00
25658;BME280;13517;59.320;18.042;2022-11-14T04:41:34;102230.63;;;7.11;100.00
25658;BME280;13517;59.320;18.042;2022-11-14T04:44:00;102234.16;;;7.12;100.00
25658;BME280;13517;59.320;18.042;2022-11-14T04:46:25;102211.31;;;6.95;100.00
25658;BME280;13517;59.320;18.042;2022-11-14T04:48:51;102224.59;;;7.01;100.00
25658;BME280;13517;59.320;18.042;2022-11-14T04:51:16;102248.53;;;7.11;100.00
25658;BME280;13517;59.320;18.042;2022-11-14T04:53:42;102229.78;;;7.09;100.00
25658;BME280;13517;59.320;18.042;2022-11-14T04:56:07;102238.75;;;7.08;100.00
25658;BME280;13517;59.320;18.042;2022-11-14T04:58:33;102220.19;;;6.97;100.00
25658;BME280;13517;59.320;18.042;2022-11-14T05:00:58;102187.56;;;6.78;100.00
25658;BME280;13517;59.320;18.042;2022-11-14T05:03:24;102197.22;;;6.85;100.00
25658;BME280;13517;59.320;18.042;2022-11-14T05:05:49;102195.38;;;6.87;100.00
25658;BME280;13517;59.320;18.042;2022-11-14T05:08:15;102199.72;;;6.93;100.00
25658;BME280;13517;59.320;18.042;2022-11-14T05:10:44;102220.13;;;7.02;100.00
25658;BME280;13517;59.320;18.042;2022-11-14T05:13:11;102199.00;;;6.86;100.00
25658;BME280;13517;59.320;18.042;2022-11-14T05:15:36;102221.09;;;6.98;100.00
25658;BME280;13517;59.320;18.042;2022-11-14T05:18:02;102220.19;;;6.97;100.00
25658;BME280;13517;59.320;18.042;2022-11-14T05:20:28;102197.22;;;6.85;100.00
25658;BME280;13517;59.320;18.042;2022-11-14T05:22:54;102218.47;;;6.94;100.00
25658;BME280;13517;59.320;18.042;2022-11-14T05:25:21;102180.66;;;6.67;100.00
25658;BME280;13517;59.320;18.042;2022-11-14T05:27:47;102182.34;;;6.72;100.00
25658;BME280;13517;59.320;18.042;2022-11-14T05:30:13;102217.63;;;6.92;100.00
25658;BME280;13517;59.320;18.042;2022-11-14T05:32:38;102196.44;;;6.80;100.00
25658;BME280;13517;59.320;18.042;2022-11-14T05:35:04;102223.00;;;6.92;100.00
25658;BME280;13517;59.320;18.042;2022-11-14T05:37:30;102230.16;;;6.93;100.00
25658;BME280;13517;59.320;18.042;2022-11-14T05:39:55;102219.63;;;6.86;100.00
25658;BME280;13517;59.320;18.042;2022-11-14T05:42:21;102225.81;;;6.88;100.00
25658;BME280;13517;59.320;18.042;2022-11-14T05:44:46;102214.38;;;6.81;100.00
25658;BME280;13517;59.320;18.042;2022-11-14T05:47:11;102227.59;;;6.89;100.00
25658;BME280;13517;59.320;18.042;2022-11-14T05:49:37;102208.22;;;6.76;100.00
25658;BME280;13517;59.320;18.042;2022-11-14T05:52:02;102232.91;;;6.92;100.00
25658;BME280;13517;59.320;18.042;2022-11-14T05:54:28;102226.53;;;6.94;100.00
25658;BME280;13517;59.320;18.042;2022-11-14T05:56:53;102217.72;;;6.89;100.00
25658;BME280;13517;59.320;18.042;2022-11-14T05:59:18;102230.94;;;6.97;100.00
25658;BME280;13517;59.320;18.042;2022-11-14T06:01:44;102213.06;;;6.96;100.00
25658;BME280;13517;59.320;18.042;2022-11-14T06:04:12;102222.88;;;6.99;100.00
25658;BME280;13517;59.320;18.042;2022-11-14T06:06:37;102207.66;;;6.98;100.00
25658;BME280;13517;59.320;18.042;2022-11-14T06:09:03;102175.16;;;6.74;100.00
25658;BME280;13517;59.320;18.042;2022-11-14T06:11:28;102213.88;;;7.00;100.00
25658;BME280;13517;59.320;18.042;2022-11-14T06:13:54;102220.13;;;7.02;100.00
25658;BME280;13517;59.320;18.042;2022-11-14T06:16:19;102218.28;;;7.02;100.00
25658;BME280;13517;59.320;18.042;2022-11-14T06:18:45;102220.03;;;7.05;100.00
25658;BME280;13517;59.320;18.042;2022-11-14T06:21:14;102213.72;;;7.06;100.00
25658;BME280;13517;59.320;18.042;2022-11-14T06:23:41;102198.78;;;6.95;100.00
25658;BME280;13517;59.320;18.042;2022-11-14T06:26:21;102213.94;;;6.98;100.00
25658;BME280;13517;59.320;18.042;2022-11-14T06:28:48;102161.72;;;6.74;100.00
25658;BME280;13517;59.320;18.042;2022-11-14T06:31:14;102211.97;;;7.05;100.00
25658;BME280;13517;59.320;18.042;2022-11-14T06:33:39;102211.00;;;7.07;100.00
25658;BME280;13517;59.320;18.042;2022-11-14T06:36:06;102199.44;;;7.04;100.00
25658;BME280;13517;59.320;18.042;2022-11-14T06:38:33;102164.97;;;6.87;100.00
25658;BME280;13517;59.320;18.042;2022-11-14T06:41:15;102167.63;;;6.88;100.00
25658;BME280;13517;59.320;18.042;2022-11-14T06:43:45;102161.25;;;6.91;100.00
25658;BME280;13517;59.320;18.042;2022-11-14T06:46:13;102201.91;;;7.12;100.00
25658;BME280;13517;59.320;18.042;2022-11-14T06:48:39;102180.69;;;7.01;100.00
25658;BME280;13517;59.320;18.042;2022-11-14T06:51:05;102193.91;;;7.10;100.00
25658;BME280;13517;59.320;18.042;2022-11-14T06:53:32;102162.94;;;6.95;100.00
25658;BME280;13517;59.320;18.042;2022-11-14T06:56:00;102193.84;;;7.12;100.00
25658;BME280;13517;59.320;18.042;2022-11-14T06:58:35;102189.41;;;7.11;100.00
25658;BME280;13517;59.320;18.042;2022-11-14T07:01:11;102177.78;;;7.10;100.00
25658;BME280;13517;59.320;18.042;2022-11-14T07:03:38;102160.13;;;7.00;100.00
25658;BME280;13517;59.320;18.042;2022-11-14T07:06:05;102174.09;;;7.14;100.00
25658;BME280;13517;59.320;18.042;2022-11-14T07:08:31;102175.00;;;7.13;100.00
25658;BME280;13517;59.320;18.042;2022-11-14T07:11:04;102184.75;;;7.17;100.00
25658;BME280;13517;59.320;18.042;2022-11-14T07:13:31;102165.19;;;7.12;100.00
25658;BME280;13517;59.320;18.042;2022-11-14T07:15:57;102164.06;;;7.21;100.00
25658;BME280;13517;59.320;18.042;2022-11-14T07:18:22;102140.31;;;7.05;100.00
25658;BME280;13517;59.320;18.042;2022-11-14T07:20:48;102131.34;;;7.05;100.00
25658;BME280;13517;59.320;18.042;2022-11-14T07:23:13;102170.13;;;7.28;100.00
25658;BME280;13517;59.320;18.042;2022-11-14T07:25:39;102171.97;;;7.27;100.00
25658;BME280;13517;59.320;18.042;2022-11-14T07:28:05;102139.22;;;7.13;100.00
25658;BME280;13517;59.320;18.042;2022-11-14T07:30:32;102162.03;;;7.29;100.00
25658;BME280;13517;59.320;18.042;2022-11-14T07:32:58;102172.69;;;7.32;100.00
25658;BME280;13517;59.320;18.042;2022-11-14T07:35:24;102163.91;;;7.27;100.00
25658;BME280;13517;59.320;18.042;2022-11-14T07:37:50;102165.53;;;7.33;100.00
25658;BME280;13517;59.320;18.042;2022-11-14T07:40:16;102173.59;;;7.33;100.00
25658;BME280;13517;59.320;18.042;2022-11-14T07:42:42;102168.28;;;7.30;100.00
25658;BME280;13517;59.320;18.042;2022-11-14T07:45:08;102133.84;;;7.13;100.00
25658;BME280;13517;59.320;18.042;2022-11-14T07:47:33;102149.34;;;7.34;100.00
25658;BME280;13517;59.320;18.042;2022-11-14T07:49:59;102145.59;;;7.40;100.00
25658;BME280;13517;59.320;18.042;2022-11-14T07:52:24;102103.28;;;7.15;100.00
25658;BME280;13517;59.320;18.042;2022-11-14T07:54:50;102152.69;;;7.43;100.00
25658;BME280;13517;59.320;18.042;2022-11-14T07:57:15;102143.81;;;7.41;100.00
25658;BME280;13517;59.320;18.042;2022-11-14T07:59:41;102126.88;;;7.37;100.00
25658;BME280;13517;59.320;18.042;2022-11-14T08:02:11;102123.16;;;7.41;100.00
25658;BME280;13517;59.320;18.042;2022-11-14T08:04:37;102142.47;;;7.56;100.00
25658;BME280;13517;59.320;18.042;2022-11-14T08:07:02;102121.31;;;7.43;100.00
25658;BME280;13517;59.320;18.042;2022-11-14T08:09:28;102135.47;;;7.50;100.00
25658;BME280;13517;59.320;18.042;2022-11-14T08:11:53;102148.66;;;7.58;100.00
25658;BME280;13517;59.320;18.042;2022-11-14T08:14:18;102131.16;;;7.44;100.00
25658;BME280;13517;59.320;18.042;2022-11-14T08:16:44;102140.81;;;7.52;100.00
25658;BME280;13517;59.320;18.042;2022-11-14T08:19:09;102149.69;;;7.54;100.00
25658;BME280;13517;59.320;18.042;2022-11-14T08:21:35;102148.78;;;7.55;100.00
25658;BME280;13517;59.320;18.042;2022-11-14T08:24:00;102124.75;;;7.48;100.00
25658;BME280;13517;59.320;18.042;2022-11-14T08:26:25;102128.19;;;7.54;100.00
25658;BME280;13517;59.320;18.042;2022-11-14T08:28:52;102152.22;;;7.60;100.00
25658;BME280;13517;59.320;18.042;2022-11-14T08:31:18;102127.41;;;7.50;100.00
25658;BME280;13517;59.320;18.042;2022-11-14T08:33:44;102123.91;;;7.46;100.00
25658;BME280;13517;59.320;18.042;2022-11-14T08:36:09;102123.81;;;7.49;100.00
25658;BME280;13517;59.320;18.042;2022-11-14T08:38:35;102138.59;;;7.66;100.00
25658;BME280;13517;59.320;18.042;2022-11-14T08:41:02;102119.06;;;7.59;100.00
25658;BME280;13517;59.320;18.042;2022-11-14T08:43:28;102119.63;;;7.71;100.00
25658;BME280;13517;59.320;18.042;2022-11-14T08:45:59;102112.38;;;7.73;100.00
25658;BME280;13517;59.320;18.042;2022-11-14T08:48:25;102113.28;;;7.73;100.00
25658;BME280;13517;59.320;18.042;2022-11-14T08:50:50;102110.66;;;7.70;100.00
25658;BME280;13517;59.320;18.042;2022-11-14T08:53:16;102122.84;;;7.82;100.00
25658;BME280;13517;59.320;18.042;2022-11-14T08:55:45;102128.94;;;7.89;100.00
25658;BME280;13517;59.320;18.042;2022-11-14T08:58:11;102122.75;;;7.85;100.00
25658;BME280;13517;59.320;18.042;2022-11-14T09:00:36;102127.19;;;7.88;100.00
25658;BME280;13517;59.320;18.042;2022-11-14T09:03:08;102120.31;;;7.77;100.00
25658;BME280;13517;59.320;18.042;2022-11-14T09:05:35;102132.41;;;7.93;100.00
25658;BME280;13517;59.320;18.042;2022-11-14T09:08:01;102124.22;;;7.96;100.00
25658;BME280;13517;59.320;18.042;2022-11-14T09:10:27;102113.81;;;7.85;100.00
25658;BME280;13517;59.320;18.042;2022-11-14T09:12:56;102132.06;;;8.03;100.00
25658;BME280;13517;59.320;18.042;2022-11-14T09:15:22;102124.97;;;8.01;100.00
25658;BME280;13517;59.320;18.042;2022-11-14T09:17:52;102116.91;;;8.01;100.00
25658;BME280;13517;59.320;18.042;2022-11-14T09:20:17;102099.19;;;7.94;100.00
25658;BME280;13517;59.320;18.042;2022-11-14T09:22:44;102114.06;;;8.06;100.00
25658;BME280;13517;59.320;18.042;2022-11-14T09:25:09;102108.59;;;8.09;100.00
25658;BME280;13517;59.320;18.042;2022-11-14T09:27:34;102087.25;;;8.02;100.00
25658;BME280;13517;59.320;18.042;2022-11-14T09:30:00;102110.00;;;8.21;100.00
25658;BME280;13517;59.320;18.042;2022-11-14T09:32:25;102070.13;;;8.05;100.00
25658;BME280;13517;59.320;18.042;2022-11-14T09:34:51;102089.28;;;8.23;100.00
25658;BME280;13517;59.320;18.042;2022-11-14T09:37:16;102080.34;;;8.22;100.00
25658;BME280;13517;59.320;18.042;2022-11-14T09:39:41;102075.78;;;8.24;100.00
25658;BME280;13517;59.320;18.042;2022-11-14T09:44:56;102094.63;;;8.24;100.00
25658;BME280;13517;59.320;18.042;2022-11-14T09:47:37;102089.41;;;8.20;100.00
25658;BME280;13517;59.320;18.042;2022-11-14T09:50:16;102091.66;;;8.32;100.00
25658;BME280;13517;59.320;18.042;2022-11-14T09:52:45;102068.44;;;8.29;100.00
25658;BME280;13517;59.320;18.042;2022-11-14T09:55:20;102084.13;;;8.43;100.00
25658;BME280;13517;59.320;18.042;2022-11-14T09:57:47;102069.09;;;8.36;100.00
25658;BME280;13517;59.320;18.042;2022-11-14T10:00:15;102048.84;;;8.24;100.00
25658;BME280;13517;59.320;18.042;2022-11-14T10:02:45;102081.59;;;8.39;100.00
25658;BME280;13517;59.320;18.042;2022-11-14T10:08:27;102079.22;;;8.29;100.00
25658;BME280;13517;59.320;18.042;2022-11-14T10:27:01;102066.84;;;7.95;100.00
25658;BME280;13517;59.320;18.042;2022-11-14T10:34:53;102042.84;;;7.89;100.00
25658;BME280;13517;59.320;18.042;2022-11-14T10:37:24;102049.66;;;7.99;100.00
25658;BME280;13517;59.320;18.042;2022-11-14T10:40:03;102038.38;;;7.88;100.00
25658;BME280;13517;59.320;18.042;2022-11-14T10:42:36;102049.97;;;7.90;100.00
25658;BME280;13517;59.320;18.042;2022-11-14T10:45:15;102050.72;;;7.95;100.00
25658;BME280;13517;59.320;18.042;2022-11-14T10:47:47;102043.31;;;8.02;100.00
25658;BME280;13517;59.320;18.042;2022-11-14T10:50:19;102039.66;;;8.03;100.00
25658;BME280;13517;59.320;18.042;2022-11-14T10:52:46;102030.47;;;8.10;100.00
25658;BME280;13517;59.320;18.042;2022-11-14T10:55:15;102014.59;;;8.02;100.00
25658;BME280;13517;59.320;18.042;2022-11-14T10:57:42;102021.69;;;8.05;100.00
25658;BME280;13517;59.320;18.042;2022-11-14T11:00:15;102027.72;;;8.12;100.00
25658;BME280;13517;59.320;18.042;2022-11-14T11:02:56;101999.66;;;7.92;100.00
25658;BME280;13517;59.320;18.042;2022-11-14T11:05:26;102025.94;;;8.12;100.00
25658;BME280;13517;59.320;18.042;2022-11-14T11:07:57;102011.78;;;8.06;100.00
25658;BME280;13517;59.320;18.042;2022-11-14T11:10:44;102010.84;;;8.07;100.00
25658;BME280;13517;59.320;18.042;2022-11-14T11:13:55;102018.91;;;8.07;100.00
25658;BME280;13517;59.320;18.042;2022-11-14T11:16:23;102008.06;;;8.10;100.00
25658;BME280;13517;59.320;18.042;2022-11-14T11:18:49;102004.66;;;8.04;100.00
25658;BME280;13517;59.320;18.042;2022-11-14T11:21:16;101990.38;;;8.02;100.00
25658;BME280;13517;59.320;18.042;2022-11-14T11:23:56;101995.53;;;8.09;100.00
25658;BME280;13517;59.320;18.042;2022-11-14T11:26:28;101995.63;;;8.06;100.00
25658;BME280;13517;59.320;18.042;2022-11-14T11:31:54;101990.38;;;8.02;100.00
25658;BME280;13517;59.320;18.042;2022-11-14T11:34:25;101986.75;;;8.03;100.00
25658;BME280;13517;59.320;18.042;2022-11-14T11:37:16;101985.97;;;8.00;100.00
25658;BME280;13517;59.320;18.042;2022-11-14T11:39:56;101974.44;;;7.96;100.00
25658;BME280;13517;59.320;18.042;2022-11-14T11:42:48;101983.53;;;7.92;100.00
25658;BME280;13517;59.320;18.042;2022-11-14T11:45:17;101990.56;;;7.96;100.00
25658;BME280;13517;59.320;18.042;2022-11-14T11:47:49;101978.88;;;7.97;100.00
25658;BME280;13517;59.320;18.042;2022-11-14T11:50:19;101974.50;;;7.93;100.00
25658;BME280;13517;59.320;18.042;2022-11-14T11:55:52;101970.22;;;7.87;100.00
25658;BME280;13517;59.320;18.042;2022-11-14T11:59:08;101965.63;;;7.91;100.00
25658;BME280;13517;59.320;18.042;2022-11-14T12:01:09;101946.16;;;7.83;100.00
25658;BME280;13517;59.320;18.042;2022-11-14T12:03:36;101958.69;;;7.84;100.00
25658;BME280;13517;59.320;18.042;2022-11-14T12:06:16;101954.97;;;7.88;100.00
25658;BME280;13517;59.320;18.042;2022-11-14T12:09:02;101954.84;;;7.91;100.00
25658;BME280;13517;59.320;18.042;2022-11-14T12:11:33;101934.59;;;7.81;100.00
25658;BME280;13517;59.320;18.042;2022-11-14T12:22:34;101950.72;;;7.81;100.00
25658;BME280;13517;59.320;18.042;2022-11-14T12:30:40;101929.94;;;7.59;100.00
25658;BME280;13517;59.320;18.042;2022-11-14T12:33:15;101931.06;;;7.52;100.00
25658;BME280;13517;59.320;18.042;2022-11-14T12:36:06;101936.31;;;7.55;100.00
25658;BME280;13517;59.320;18.042;2022-11-14T12:38:53;101940.91;;;7.51;100.00
25658;BME280;13517;59.320;18.042;2022-11-14T12:41:27;101929.72;;;7.36;100.00
25658;BME280;13517;59.320;18.042;2022-11-14T12:58:22;101913.06;;;7.25;100.00
25658;BME280;13517;59.320;18.042;2022-11-14T13:05:58;101890.50;;;7.31;100.00
25658;BME280;13517;59.320;18.042;2022-11-14T13:11:47;101894.75;;;7.38;100.00
25658;BME280;13517;59.320;18.042;2022-11-14T13:14:47;101899.06;;;7.42;100.00
25658;BME280;13517;59.320;18.042;2022-11-14T13:17:31;101888.31;;;7.42;100.00
25658;BME280;13517;59.320;18.042;2022-11-14T13:20:22;101885.59;;;7.44;100.00
25658;BME280;13517;59.320;18.042;2022-11-14T13:28:55;101881.19;;;7.41;100.00
25658;BME280;13517;59.320;18.042;2022-11-14T13:31:43;101860.81;;;7.34;100.00
25658;BME280;13517;59.320;18.042;2022-11-14T13:40:13;101862.78;;;7.56;100.00
25658;BME280;13517;59.320;18.042;2022-11-14T13:42:53;101865.41;;;7.57;100.00
25658;BME280;13517;59.320;18.042;2022-11-14T13:50:56;101859.28;;;7.54;100.00
25658;BME280;13517;59.320;18.042;2022-11-14T13:53:25;101859.09;;;7.58;100.00
25658;BME280;13517;59.320;18.042;2022-11-14T14:01:41;101864.06;;;7.44;100.00
25658;BME280;13517;59.320;18.042;2022-11-14T14:04:28;101860.59;;;7.40;100.00
25658;BME280;13517;59.320;18.042;2022-11-14T14:07:17;101865.25;;;7.35;100.00
25658;BME280;13517;59.320;18.042;2022-11-14T14:12:44;101863.53;;;7.32;100.00
25658;BME280;13517;59.320;18.042;2022-11-14T14:20:57;101834.28;;;7.23;100.00
25658;BME280;13517;59.320;18.042;2022-11-14T14:23:36;101853.84;;;7.28;100.00
25658;BME280;13517;59.320;18.042;2022-11-14T14:26:16;101818.34;;;7.17;100.00
25658;BME280;13517;59.320;18.042;2022-11-14T14:31:21;101829.47;;;7.33;100.00
25658;BME280;13517;59.320;18.042;2022-11-14T14:33:50;101824.97;;;7.33;100.00
25658;BME280;13517;59.320;18.042;2022-11-14T14:36:20;101827.63;;;7.35;100.00
25658;BME280;13517;59.320;18.042;2022-11-14T14:38:47;101827.03;;;7.25;100.00